createdAt,value
2023-04-01T00:00:12.674Z,89.57
2023-04-01T00:02:47.164Z,90.48
2023-04-01T00:05:22.283Z,90.93
2023-04-01T00:07:58.112Z,90.08
2023-04-01T00:10:32.862Z,89.97
2023-04-01T00:13:09.462Z,88.75
2023-04-01T00:15:45.151Z,89.12
2023-04-01T00:18:19.664Z,89.26
2023-04-01T00:20:55.200Z,89.80
2023-04-01T00:23:31.009Z,89.25
2023-04-01T00:26:06.431Z,89.11
2023-04-01T00:28:41.260Z,88.12
2023-04-01T00:31:16.918Z,89.21
2023-04-01T00:33:51.764Z,88.37
2023-04-01T00:36:26.434Z,89.07
2023-04-01T00:39:02.368Z,88.90
2023-04-01T00:41:37.476Z,89.36
2023-04-01T00:44:19.293Z,89.26
2023-04-01T00:46:54.737Z,89.54
2023-04-01T00:49:33.382Z,89.39
2023-04-01T00:52:10.519Z,89.43
2023-04-01T00:54:50.053Z,89.34
2023-04-01T00:57:29.700Z,90.57
2023-04-01T01:00:08.402Z,90.30
2023-04-01T01:02:48.038Z,89.99
2023-04-01T01:05:34.342Z,89.52
2023-04-01T01:08:20.373Z,90.51
2023-04-01T01:10:56.428Z,89.75
2023-04-01T01:13:38.528Z,90.08
2023-04-01T01:16:21.323Z,90.18
2023-04-01T01:19:02.518Z,91.01
2023-04-01T01:21:57.163Z,91.69
2023-04-01T01:24:51.380Z,91.02
2023-04-01T01:27:27.619Z,92.51
2023-04-01T01:30:21.833Z,92.29
2023-04-01T01:33:25.554Z,92.29
2023-04-01T01:36:05.658Z,91.94
2023-04-01T01:38:40.765Z,92.17
2023-04-01T01:41:18.706Z,92.43
2023-04-01T01:43:56.014Z,92.60
2023-04-01T01:46:32.989Z,92.15
2023-04-01T01:49:10.948Z,91.98
2023-04-01T01:51:47.002Z,92.43
2023-04-01T01:54:21.861Z,92.96
2023-04-01T01:57:05.695Z,91.81
2023-04-01T01:59:42.832Z,91.96
2023-04-01T02:02:21.082Z,91.80
2023-04-01T02:04:57.042Z,91.38
2023-04-01T02:07:37.672Z,91.57
2023-04-01T02:10:13.010Z,91.38
2023-04-01T02:12:51.878Z,91.53
2023-04-01T02:15:31.926Z,91.38
2023-04-01T02:18:08.036Z,90.98
2023-04-01T02:20:44.157Z,90.95
2023-04-01T02:23:20.413Z,91.60
2023-04-01T02:25:56.114Z,90.71
2023-04-01T02:28:33.872Z,91.03
2023-04-01T02:31:11.632Z,90.58
2023-04-01T02:33:47.536Z,90.96
2023-04-01T02:36:22.475Z,90.78
2023-04-01T02:39:03.316Z,90.88
2023-04-01T02:41:41.788Z,91.42
2023-04-01T02:44:17.633Z,90.94
2023-04-01T02:46:52.021Z,90.93
2023-04-01T02:49:27.668Z,91.25
2023-04-01T02:52:02.081Z,91.23
2023-04-01T02:54:38.087Z,91.24
2023-04-01T02:57:12.493Z,91.40
2023-04-01T02:59:47.262Z,91.83
2023-04-01T03:02:21.624Z,91.49
2023-04-01T03:04:56.447Z,91.92
2023-04-01T03:07:30.978Z,92.04
2023-04-01T03:10:08.512Z,92.20
2023-04-01T03:12:42.961Z,92.07
2023-04-01T03:15:17.741Z,91.74
2023-04-01T03:17:52.552Z,91.56
2023-04-01T03:20:27.634Z,91.64
2023-04-01T03:23:02.021Z,91.45
2023-04-01T03:25:38.108Z,90.81
2023-04-01T03:28:13.469Z,91.15
2023-04-01T03:30:48.206Z,90.85
2023-04-01T03:33:22.914Z,91.04
2023-04-01T03:35:57.607Z,90.40
2023-04-01T03:38:32.632Z,90.65
2023-04-01T03:41:08.932Z,90.83
2023-04-01T03:43:43.712Z,89.14
2023-04-01T03:46:20.553Z,89.02
2023-04-01T03:48:55.217Z,89.67
2023-04-01T03:51:30.097Z,90.51
2023-04-01T03:54:04.613Z,90.18
2023-04-01T03:56:41.060Z,90.44
2023-04-01T03:59:16.076Z,89.73
2023-04-01T04:01:50.980Z,89.30
2023-04-01T04:04:25.757Z,90.00
2023-04-01T04:07:00.661Z,92.32
2023-04-01T04:09:37.371Z,92.39
2023-04-01T04:12:13.098Z,92.00
2023-04-01T04:14:47.788Z,90.91
2023-04-01T04:17:22.113Z,90.46
2023-04-01T04:19:56.976Z,90.58
2023-04-01T04:22:31.665Z,90.37
2023-04-01T04:25:07.551Z,89.69
2023-04-01T04:27:43.526Z,89.63
2023-04-01T04:30:20.332Z,89.07
2023-04-01T04:32:54.734Z,89.24
2023-04-01T04:35:29.483Z,89.04
2023-04-01T04:38:04.126Z,88.36
2023-04-01T04:40:40.766Z,89.39
2023-04-01T04:43:19.257Z,88.41
2023-04-01T04:45:53.855Z,87.54
2023-04-01T04:48:28.556Z,87.48
2023-04-01T04:51:04.281Z,88.62
2023-04-01T04:53:38.734Z,89.15
2023-04-01T04:56:13.982Z,88.28
2023-04-01T04:58:51.242Z,88.19
2023-04-01T05:01:26.652Z,88.19
2023-04-01T05:04:01.352Z,88.01
2023-04-01T05:06:36.242Z,88.43
2023-04-01T05:09:10.980Z,87.14
2023-04-01T05:11:45.968Z,87.16
2023-04-01T05:14:22.201Z,86.69
2023-04-01T05:16:57.070Z,87.12
2023-04-01T05:19:31.491Z,86.96
2023-04-01T05:22:07.946Z,87.61
2023-04-01T05:24:43.486Z,87.31
2023-04-01T05:27:18.974Z,86.85
2023-04-01T05:29:54.874Z,86.72
2023-04-01T05:32:33.817Z,86.57
2023-04-01T05:35:09.541Z,86.12
2023-04-01T05:37:44.527Z,85.77
2023-04-01T05:40:19.840Z,85.41
2023-04-01T05:42:54.622Z,85.68
2023-04-01T05:45:30.715Z,85.33
2023-04-01T05:48:07.160Z,84.75
2023-04-01T05:50:43.560Z,84.39
2023-04-01T05:53:18.504Z,85.28
2023-04-01T05:55:52.869Z,84.98
2023-04-01T05:58:27.598Z,85.67
2023-04-01T06:02:54.516Z,84.70
2023-04-01T06:05:32.925Z,84.70
2023-04-01T06:08:13.952Z,86.41
2023-04-01T06:11:01.507Z,86.36
2023-04-01T06:13:48.823Z,86.93
2023-04-01T06:16:32.448Z,86.97
2023-04-01T06:19:18.343Z,86.57
2023-04-01T06:22:18.228Z,86.57
2023-04-01T06:25:15.754Z,86.25
2023-04-01T06:28:09.219Z,85.84
2023-04-01T06:30:47.633Z,86.24
2023-04-01T06:33:38.975Z,86.18
2023-04-01T06:36:48.978Z,85.67
2023-04-01T06:39:43.148Z,85.20
2023-04-01T06:42:43.107Z,86.49
2023-04-01T06:45:32.816Z,85.86
2023-04-01T06:48:32.535Z,93.21
2023-04-01T06:51:24.565Z,83.49
2023-04-01T06:54:08.663Z,83.18
2023-04-01T06:56:58.430Z,83.96
2023-04-01T06:59:36.252Z,83.69
2023-04-01T07:02:24.085Z,84.71
2023-04-01T07:05:00.544Z,85.14
2023-04-01T07:07:41.422Z,85.22
2023-04-01T07:10:21.963Z,85.02
2023-04-01T07:13:06.980Z,83.92
2023-04-01T07:15:58.851Z,83.60
2023-04-01T07:18:43.601Z,84.66
2023-04-01T07:21:26.162Z,83.77
2023-04-01T07:24:07.470Z,83.47
2023-04-01T07:26:43.100Z,83.40
2023-04-01T07:29:18.184Z,82.58
2023-04-01T07:32:12.729Z,82.44
2023-04-01T07:34:59.409Z,83.64
2023-04-01T07:37:41.559Z,90.85
2023-04-01T07:40:29.036Z,78.26
2023-04-01T07:43:29.516Z,75.60
2023-04-01T07:46:15.618Z,78.97
2023-04-01T07:48:58.897Z,74.68
2023-04-01T07:51:39.054Z,75.27
2023-04-01T07:54:21.594Z,73.84
2023-04-01T07:57:04.141Z,76.22
2023-04-01T07:59:45.632Z,73.93
2023-04-01T08:02:32.226Z,74.29
2023-04-01T08:05:19.738Z,72.42
2023-04-01T08:08:07.386Z,73.95
2023-04-01T08:10:53.251Z,73.85
2023-04-01T08:13:44.944Z,71.96
2023-04-01T08:16:32.226Z,72.28
2023-04-01T08:19:18.110Z,69.65
2023-04-01T08:21:55.174Z,70.24
2023-04-01T08:24:46.591Z,69.85
2023-04-01T08:27:28.752Z,68.65
2023-04-01T08:30:10.379Z,68.25
2023-04-01T08:32:53.357Z,67.42
2023-04-01T08:35:34.861Z,68.05
2023-04-01T08:38:18.702Z,67.36
2023-04-01T08:41:09.503Z,68.00
2023-04-01T08:44:01.733Z,68.75
2023-04-01T08:47:26.884Z,67.43
2023-04-01T08:50:28.922Z,66.93
2023-04-01T08:53:13.032Z,65.85
2023-04-01T08:55:58.629Z,66.71
2023-04-01T08:59:01.978Z,67.71
2023-04-01T09:02:00.522Z,66.04
2023-04-01T09:04:51.636Z,66.78
2023-04-01T09:07:41.736Z,66.10
2023-04-01T09:10:48.508Z,65.47
2023-04-01T09:13:41.318Z,65.09
2023-04-01T09:16:41.757Z,64.82
2023-04-01T09:19:35.893Z,66.41
2023-04-01T09:22:35.955Z,65.67
2023-04-01T09:25:38.619Z,65.42
2023-04-01T09:28:20.765Z,64.47
2023-04-01T09:31:25.796Z,63.40
2023-04-01T09:34:28.428Z,64.17
2023-04-01T09:37:22.594Z,65.01
2023-04-01T09:40:16.393Z,63.16
2023-04-01T09:43:17.884Z,62.44
2023-04-01T09:46:06.563Z,62.48
2023-04-01T09:49:24.760Z,63.91
2023-04-01T09:52:18.610Z,63.44
2023-04-01T09:55:21.294Z,62.83
2023-04-01T09:58:47.811Z,63.74
2023-04-01T10:01:45.709Z,61.40
2023-04-01T10:05:07.052Z,62.05
2023-04-01T10:07:59.150Z,62.02
2023-04-01T10:11:15.325Z,61.96
2023-04-01T10:14:18.510Z,63.21
2023-04-01T10:17:23.817Z,62.64
2023-04-01T10:20:34.114Z,62.26
2023-04-01T10:23:48.075Z,61.88
2023-04-01T10:26:43.454Z,60.59
2023-04-01T10:29:50.547Z,61.24
2023-04-01T10:32:56.965Z,60.85
2023-04-01T10:36:09.560Z,60.53
2023-04-01T10:39:11.022Z,60.68
2023-04-01T10:42:15.969Z,61.50
2023-04-01T10:45:26.091Z,64.02
2023-04-01T10:48:19.615Z,70.48
2023-04-01T10:51:22.783Z,71.00
2023-04-01T10:54:31.059Z,71.00
2023-04-01T10:57:27.379Z,72.48
2023-04-01T11:00:49.279Z,72.74
2023-04-01T11:04:14.062Z,68.98
2023-04-01T11:07:43.217Z,70.79
2023-04-01T11:11:02.091Z,67.13
2023-04-01T11:14:22.936Z,64.50
2023-04-01T11:17:38.601Z,65.18
2023-04-01T11:20:51.822Z,63.23
2023-04-01T11:24:05.138Z,62.99
2023-04-01T11:26:53.392Z,64.32
2023-04-01T11:29:59.837Z,63.83
2023-04-01T11:32:52.388Z,62.65
2023-04-01T11:35:42.398Z,65.96
2023-04-01T11:38:29.206Z,62.63
2023-04-01T11:41:32.585Z,63.46
2023-04-01T11:44:20.576Z,63.74
2023-04-01T11:47:23.675Z,60.99
2023-04-01T11:50:17.954Z,60.77
2023-04-01T11:53:12.480Z,59.89
2023-04-01T11:55:58.944Z,60.29
2023-04-01T11:58:48.235Z,60.61
2023-04-01T12:01:57.346Z,59.33
2023-04-01T12:05:00.501Z,60.11
2023-04-01T12:07:55.582Z,60.19
2023-04-01T12:10:39.637Z,60.86
2023-04-01T12:13:29.285Z,61.04
2023-04-01T12:16:20.699Z,59.19
2023-04-01T12:19:02.086Z,58.10
2023-04-01T12:21:39.792Z,59.11
2023-04-01T12:24:32.223Z,56.94
2023-04-01T12:27:25.014Z,58.08
2023-04-01T12:30:39.905Z,57.94
2023-04-01T12:33:44.926Z,57.92
2023-04-01T12:36:53.171Z,56.47
2023-04-01T12:40:01.903Z,56.56
2023-04-01T12:42:54.087Z,55.43
2023-04-01T12:45:34.149Z,53.44
2023-04-01T12:48:36.406Z,53.12
2023-04-01T12:51:31.858Z,54.13
2023-04-01T12:54:25.471Z,54.07
2023-04-01T12:57:13.137Z,52.73
2023-04-01T13:00:04.465Z,52.14
2023-04-01T13:02:51.952Z,54.21
2023-04-01T13:05:44.439Z,53.48
2023-04-01T13:08:32.353Z,53.41
2023-04-01T13:11:17.249Z,53.73
2023-04-01T13:14:43.285Z,52.22
2023-04-01T13:17:23.941Z,51.90
2023-04-01T13:20:06.602Z,49.13
2023-04-01T13:22:59.577Z,50.51
2023-04-01T13:25:41.572Z,48.76
2023-04-01T13:28:22.795Z,52.63
2023-04-01T13:31:04.418Z,49.56
2023-04-01T13:33:47.246Z,48.84
2023-04-01T13:36:32.890Z,47.58
2023-04-01T13:39:38.293Z,48.74
2023-04-01T13:42:21.333Z,48.32
2023-04-01T13:45:03.698Z,48.97
2023-04-01T13:48:04.716Z,48.87
2023-04-01T13:51:01.661Z,48.52
2023-04-01T13:53:59.000Z,46.67
2023-04-01T13:56:49.614Z,48.80
2023-04-01T14:03:23.296Z,49.47
2023-04-01T14:06:31.169Z,49.47
2023-04-01T14:09:32.029Z,51.26
2023-04-01T14:12:14.163Z,53.51
2023-04-01T14:15:07.874Z,51.91
2023-04-01T14:17:56.620Z,50.17
2023-04-01T14:20:41.795Z,52.45
2023-04-01T14:23:37.377Z,47.54
2023-04-01T14:26:47.573Z,48.46
2023-04-01T14:29:32.210Z,49.04
2023-04-01T14:32:14.910Z,49.32
2023-04-01T14:35:01.941Z,48.84
2023-04-01T14:37:55.468Z,48.03
2023-04-01T14:40:36.709Z,47.14
2023-04-01T14:43:31.083Z,46.37
2023-04-01T14:46:37.087Z,44.84
2023-04-01T14:49:22.019Z,45.87
2023-04-01T14:51:57.296Z,44.00
2023-04-01T14:54:37.993Z,43.32
2023-04-01T14:57:15.552Z,44.59
2023-04-01T14:59:52.154Z,46.84
2023-04-01T15:02:51.718Z,50.57
2023-04-01T15:05:40.213Z,43.72
2023-04-01T15:08:21.139Z,44.06
2023-04-01T15:11:17.672Z,45.04
2023-04-01T15:14:13.646Z,47.18
2023-04-01T15:16:58.083Z,46.81
2023-04-01T15:19:44.524Z,47.83
2023-04-01T15:22:39.905Z,46.30
2023-04-01T15:25:30.567Z,44.37
2023-04-01T15:28:18.440Z,44.38
2023-04-01T15:31:01.873Z,44.98
2023-04-01T15:33:48.473Z,44.61
2023-04-01T15:36:35.298Z,44.75
2023-04-01T15:39:17.993Z,43.99
2023-04-01T15:42:07.871Z,43.98
2023-04-01T15:44:57.754Z,43.86
2023-04-01T15:47:40.932Z,43.51
2023-04-01T15:50:46.612Z,44.09
2023-04-01T15:53:38.352Z,43.88
2023-04-01T15:56:23.490Z,44.42
2023-04-01T15:59:12.399Z,44.23
2023-04-01T16:01:59.023Z,44.53
2023-04-01T16:04:49.124Z,44.01
2023-04-01T16:07:43.175Z,44.58
2023-04-01T16:10:36.668Z,43.41
2023-04-01T16:13:34.737Z,44.92
2023-04-01T16:16:19.599Z,44.99
2023-04-01T16:19:15.082Z,45.50
2023-04-01T16:21:54.672Z,48.59
2023-04-01T16:24:37.099Z,59.27
2023-04-01T16:27:16.936Z,47.76
2023-04-01T16:29:55.611Z,45.23
2023-04-01T16:32:43.477Z,45.59
2023-04-01T16:35:37.925Z,45.73
2023-04-01T16:38:21.142Z,46.29
2023-04-01T16:41:10.134Z,47.89
2023-04-01T16:43:49.501Z,47.76
2023-04-01T16:46:33.715Z,47.76
2023-04-01T16:49:26.841Z,48.85
2023-04-01T16:52:17.093Z,49.17
2023-04-01T16:54:59.466Z,49.72
2023-04-01T16:57:45.784Z,49.46
2023-04-01T17:00:28.836Z,49.63
2023-04-01T17:03:18.451Z,50.47
2023-04-01T17:06:09.967Z,50.13
2023-04-01T17:08:58.533Z,50.07
2023-04-01T17:11:41.651Z,51.46
2023-04-01T17:14:27.690Z,50.86
2023-04-01T17:17:22.373Z,52.41
2023-04-01T17:20:26.175Z,51.85
2023-04-01T17:23:08.001Z,53.13
2023-04-01T17:26:05.563Z,52.25
2023-04-01T17:28:52.112Z,52.71
2023-04-01T17:31:47.267Z,53.27
2023-04-01T17:34:37.249Z,55.11
2023-04-01T17:37:33.977Z,57.66
2023-04-01T17:40:32.403Z,58.26
2023-04-01T17:43:19.295Z,58.56
2023-04-01T17:45:58.185Z,58.43
2023-04-01T17:48:44.468Z,58.72
2023-04-01T17:51:27.058Z,59.39
2023-04-01T17:54:14.329Z,59.86
2023-04-01T17:57:04.261Z,59.53
2023-04-01T17:59:47.384Z,60.13
2023-04-01T18:02:31.175Z,59.79
2023-04-01T18:05:29.667Z,60.66
2023-04-01T18:08:15.475Z,60.45
2023-04-01T18:11:01.002Z,60.83
2023-04-01T18:13:59.827Z,80.41
2023-04-01T18:17:12.292Z,78.33
2023-04-01T18:19:59.151Z,73.69
2023-04-01T18:22:43.549Z,66.41
2023-04-01T18:25:25.657Z,60.12
2023-04-01T18:28:18.822Z,60.09
2023-04-01T18:30:57.987Z,61.20
2023-04-01T18:33:39.404Z,61.47
2023-04-01T18:36:25.486Z,61.89
2023-04-01T18:39:06.065Z,61.97
2023-04-01T18:41:45.084Z,62.91
2023-04-01T18:44:31.248Z,62.60
2023-04-01T18:47:23.714Z,62.58
2023-04-01T18:50:04.579Z,62.80
2023-04-01T18:52:43.992Z,63.83
2023-04-01T18:55:31.993Z,63.68
2023-04-01T18:58:22.276Z,64.22
2023-04-01T19:01:10.655Z,63.56
2023-04-01T19:03:59.749Z,62.32
2023-04-01T19:06:43.620Z,62.20
2023-04-01T19:09:22.095Z,62.74
2023-04-01T19:12:25.896Z,62.96
2023-04-01T19:15:29.177Z,63.05
2023-04-01T19:18:30.148Z,63.52
2023-04-01T19:21:13.474Z,65.51
2023-04-01T19:24:35.540Z,66.11
2023-04-01T19:27:25.964Z,85.58
2023-04-01T19:30:33.256Z,77.74
2023-04-01T19:33:27.503Z,67.44
2023-04-01T19:36:12.586Z,68.85
2023-04-01T19:38:56.901Z,70.19
2023-04-01T19:41:44.041Z,71.06
2023-04-01T19:44:37.016Z,71.71
2023-04-01T19:47:21.954Z,72.51
2023-04-01T19:50:08.767Z,73.35
2023-04-01T19:52:44.732Z,72.93
2023-04-01T19:55:33.255Z,72.98
2023-04-01T19:58:18.645Z,74.12
2023-04-01T20:00:59.228Z,74.74
2023-04-01T20:03:43.972Z,74.94
2023-04-01T20:06:25.262Z,75.03
2023-04-01T20:09:17.087Z,75.24
2023-04-01T20:11:59.859Z,75.59
2023-04-01T20:14:44.406Z,75.50
2023-04-01T20:17:24.682Z,75.68
2023-04-01T20:20:02.743Z,75.21
2023-04-01T20:22:56.866Z,75.87
2023-04-01T20:25:37.238Z,87.71
2023-04-01T20:28:16.781Z,80.51
2023-04-01T20:31:04.087Z,74.97
2023-04-01T20:34:17.530Z,73.65
2023-04-01T20:37:15.532Z,75.04
2023-04-01T20:40:26.792Z,74.65
2023-04-01T20:43:25.323Z,74.47
2023-04-01T20:46:02.658Z,75.04
2023-04-01T20:49:14.026Z,75.34
2023-04-01T20:51:56.908Z,75.19
2023-04-01T20:54:58.739Z,74.95
2023-04-01T20:57:38.739Z,74.59
2023-04-01T21:00:33.963Z,74.22
2023-04-01T21:03:28.619Z,74.53
2023-04-01T21:06:30.092Z,74.38
2023-04-01T21:09:27.540Z,73.59
2023-04-01T21:12:14.430Z,72.79
2023-04-01T21:15:00.153Z,71.23
2023-04-01T21:17:44.946Z,83.91
2023-04-01T21:20:51.992Z,80.15
2023-04-01T21:23:42.669Z,67.93
2023-04-01T21:26:35.099Z,68.28
2023-04-01T21:29:30.618Z,69.47
2023-04-01T21:32:31.530Z,70.47
2023-04-01T21:35:17.195Z,74.36
2023-04-01T21:38:23.422Z,77.60
2023-04-01T21:41:40.145Z,69.05
2023-04-01T21:44:51.134Z,70.20
2023-04-01T21:48:01.154Z,70.10
2023-04-01T21:51:17.451Z,71.18
2023-04-01T21:54:23.448Z,70.86
2023-04-01T21:57:41.575Z,71.23
2023-04-01T22:03:27.785Z,70.05
2023-04-01T22:06:12.398Z,70.05
2023-04-01T22:09:01.577Z,71.26
2023-04-01T22:11:50.592Z,71.73
2023-04-01T22:14:33.778Z,72.00
2023-04-01T22:17:20.173Z,71.80
2023-04-01T22:20:10.426Z,72.04
2023-04-01T22:23:09.935Z,72.42
2023-04-01T22:25:51.274Z,71.96
2023-04-01T22:28:32.009Z,72.28
2023-04-01T22:31:09.391Z,72.49
2023-04-01T22:33:51.681Z,73.03
2023-04-01T22:36:38.658Z,72.61
2023-04-01T22:39:32.136Z,72.82
2023-04-01T22:42:25.542Z,73.63
2023-04-01T22:45:13.592Z,74.05
2023-04-01T22:48:02.663Z,73.59
2023-04-01T22:50:42.999Z,73.24
2023-04-01T22:53:32.391Z,73.12
2023-04-01T22:56:14.770Z,72.94
2023-04-01T22:58:56.744Z,73.00
2023-04-01T23:01:38.226Z,73.27
2023-04-01T23:04:18.370Z,73.12
2023-04-01T23:06:58.785Z,72.97
2023-04-01T23:09:37.783Z,72.77
2023-04-01T23:12:16.113Z,72.72
2023-04-01T23:14:53.204Z,72.66
2023-04-01T23:17:36.300Z,73.39
2023-04-01T23:20:20.089Z,73.31
2023-04-01T23:23:07.978Z,73.19
2023-04-01T23:25:52.167Z,72.93
2023-04-01T23:28:46.768Z,72.31
2023-04-01T23:31:39.725Z,72.66
2023-04-01T23:34:28.154Z,72.59
2023-04-01T23:37:07.557Z,72.44
2023-04-01T23:39:46.115Z,72.01
2023-04-01T23:42:26.217Z,71.91
2023-04-01T23:45:02.788Z,71.73
2023-04-01T23:47:40.690Z,71.67
2023-04-01T23:50:20.478Z,71.70
2023-04-01T23:52:59.751Z,71.74
2023-04-01T23:55:36.888Z,71.91
2023-04-01T23:58:20.994Z,72.34
